sensor_id;sensor_type;location;lat;lon;timestamp;P1;durP1;ratioP1;P2;durP2;ratioP2
11596;SDS011;5854;48.072;16.286;2022-07-29T06:20:58;9.85;;;3.97;;
11596;SDS011;5854;48.072;16.286;2022-07-29T06:23:30;4.10;;;3.60;;
11596;SDS011;5854;48.072;16.286;2022-07-29T06:26:05;8.93;;;4.00;;
11596;SDS011;5854;48.072;16.286;2022-07-29T06:28:33;6.15;;;3.42;;
11596;SDS011;5854;48.072;16.286;2022-07-29T06:31:01;13.68;;;4.28;;
11596;SDS011;5854;48.072;16.286;2022-07-29T06:33:28;10.27;;;4.25;;
11596;SDS011;5854;48.072;16.286;2022-07-29T06:35:55;6.20;;;4.03;;
11596;SDS011;5854;48.072;16.286;2022-07-29T06:38:24;4.75;;;3.92;;
11596;SDS011;5854;48.072;16.286;2022-07-29T06:40:52;11.77;;;3.22;;
11596;SDS011;5854;48.072;16.286;2022-07-29T06:43:32;6.22;;;3.45;;
11596;SDS011;5854;48.072;16.286;2022-07-29T06:46:03;8.57;;;3.13;;
11596;SDS011;5854;48.072;16.286;2022-07-29T06:48:33;8.75;;;3.60;;
11596;SDS011;5854;48.072;16.286;2022-07-29T06:51:03;6.88;;;3.53;;
11596;SDS011;5854;48.072;16.286;2022-07-29T06:53:31;4.15;;;3.00;;
11596;SDS011;5854;48.072;16.286;2022-07-29T06:56:00;3.90;;;3.20;;
11596;SDS011;5854;48.072;16.286;2022-07-29T06:58:29;7.50;;;3.95;;
11596;SDS011;5854;48.072;16.286;2022-07-29T07:00:57;7.93;;;4.30;;
11596;SDS011;5854;48.072;16.286;2022-07-29T07:03:28;5.10;;;3.47;;
11596;SDS011;5854;48.072;16.286;2022-07-29T07:05:56;3.75;;;3.08;;
11596;SDS011;5854;48.072;16.286;2022-07-29T07:08:25;4.43;;;3.20;;
11596;SDS011;5854;48.072;16.286;2022-07-29T07:10:53;13.77;;;3.08;;
11596;SDS011;5854;48.072;16.286;2022-07-29T07:13:22;7.05;;;3.33;;
11596;SDS011;5854;48.072;16.286;2022-07-29T07:15:49;13.45;;;3.20;;
11596;SDS011;5854;48.072;16.286;2022-07-29T07:18:17;9.30;;;3.08;;
11596;SDS011;5854;48.072;16.286;2022-07-29T07:20:44;6.03;;;3.22;;
11596;SDS011;5854;48.072;16.286;2022-07-29T07:23:12;6.93;;;2.53;;
11596;SDS011;5854;48.072;16.286;2022-07-29T07:25:41;4.38;;;3.78;;
11596;SDS011;5854;48.072;16.286;2022-07-29T07:28:08;6.75;;;2.78;;
11596;SDS011;5854;48.072;16.286;2022-07-29T07:30:35;4.47;;;3.35;;
11596;SDS011;5854;48.072;16.286;2022-07-29T07:33:02;3.22;;;2.92;;
11596;SDS011;5854;48.072;16.286;2022-07-29T07:35:30;8.05;;;2.70;;
11596;SDS011;5854;48.072;16.286;2022-07-29T07:37:57;6.85;;;3.17;;
11596;SDS011;5854;48.072;16.286;2022-07-29T07:40:24;3.83;;;3.03;;
11596;SDS011;5854;48.072;16.286;2022-07-29T07:42:53;7.13;;;2.72;;
11596;SDS011;5854;48.072;16.286;2022-07-29T07:45:20;2.75;;;2.55;;
11596;SDS011;5854;48.072;16.286;2022-07-29T07:47:47;5.43;;;2.40;;
11596;SDS011;5854;48.072;16.286;2022-07-29T07:50:14;3.53;;;2.40;;
11596;SDS011;5854;48.072;16.286;2022-07-29T07:52:46;2.55;;;2.30;;
11596;SDS011;5854;48.072;16.286;2022-07-29T07:55:15;6.60;;;2.70;;
11596;SDS011;5854;48.072;16.286;2022-07-29T07:57:42;3.45;;;2.63;;
11596;SDS011;5854;48.072;16.286;2022-07-29T08:00:12;3.17;;;1.90;;
11596;SDS011;5854;48.072;16.286;2022-07-29T08:02:41;4.70;;;2.78;;
11596;SDS011;5854;48.072;16.286;2022-07-29T08:05:10;9.27;;;2.00;;
11596;SDS011;5854;48.072;16.286;2022-07-29T08:07:41;5.32;;;2.35;;
11596;SDS011;5854;48.072;16.286;2022-07-29T08:10:10;10.13;;;2.80;;
11596;SDS011;5854;48.072;16.286;2022-07-29T08:12:38;4.05;;;2.13;;
11596;SDS011;5854;48.072;16.286;2022-07-29T08:17:37;2.92;;;2.63;;
11596;SDS011;5854;48.072;16.286;2022-07-29T08:20:05;4.22;;;3.05;;
11596;SDS011;5854;48.072;16.286;2022-07-29T08:22:33;12.65;;;2.88;;
11596;SDS011;5854;48.072;16.286;2022-07-29T08:25:00;4.57;;;2.45;;
11596;SDS011;5854;48.072;16.286;2022-07-29T08:27:27;4.72;;;2.30;;
11596;SDS011;5854;48.072;16.286;2022-07-29T08:29:55;5.63;;;2.85;;
11596;SDS011;5854;48.072;16.286;2022-07-29T08:32:24;5.80;;;2.28;;
11596;SDS011;5854;48.072;16.286;2022-07-29T08:34:53;9.52;;;2.53;;
11596;SDS011;5854;48.072;16.286;2022-07-29T08:37:20;5.32;;;2.92;;
11596;SDS011;5854;48.072;16.286;2022-07-29T08:39:47;2.67;;;2.47;;
11596;SDS011;5854;48.072;16.286;2022-07-29T08:42:14;5.53;;;2.65;;
11596;SDS011;5854;48.072;16.286;2022-07-29T08:44:41;3.55;;;2.80;;
11596;SDS011;5854;48.072;16.286;2022-07-29T08:47:09;2.50;;;2.30;;
11596;SDS011;5854;48.072;16.286;2022-07-29T08:49:41;11.25;;;2.42;;
11596;SDS011;5854;48.072;16.286;2022-07-29T08:52:10;2.80;;;2.60;;
11596;SDS011;5854;48.072;16.286;2022-07-29T08:54:38;2.50;;;2.30;;
11596;SDS011;5854;48.072;16.286;2022-07-29T08:57:06;3.15;;;2.50;;
11596;SDS011;5854;48.072;16.286;2022-07-29T08:59:33;3.55;;;2.47;;
11596;SDS011;5854;48.072;16.286;2022-07-29T09:02:01;4.45;;;2.67;;
11596;SDS011;5854;48.072;16.286;2022-07-29T09:04:30;4.00;;;2.13;;
11596;SDS011;5854;48.072;16.286;2022-07-29T09:07:04;2.67;;;2.47;;
11596;SDS011;5854;48.072;16.286;2022-07-29T09:09:32;2.75;;;2.47;;
11596;SDS011;5854;48.072;16.286;2022-07-29T09:12:00;5.50;;;2.30;;
11596;SDS011;5854;48.072;16.286;2022-07-29T09:14:29;8.48;;;2.08;;
11596;SDS011;5854;48.072;16.286;2022-07-29T09:16:56;5.80;;;1.98;;
11596;SDS011;5854;48.072;16.286;2022-07-29T09:19:24;2.03;;;1.85;;
11596;SDS011;5854;48.072;16.286;2022-07-29T09:21:54;3.40;;;2.13;;
11596;SDS011;5854;48.072;16.286;2022-07-29T09:27:19;7.43;;;2.17;;
11596;SDS011;5854;48.072;16.286;2022-07-29T09:29:57;1.80;;;1.70;;
11596;SDS011;5854;48.072;16.286;2022-07-29T09:32:26;3.78;;;1.98;;
11596;SDS011;5854;48.072;16.286;2022-07-29T09:37:44;4.28;;;1.95;;
11596;SDS011;5854;48.072;16.286;2022-07-29T09:40:14;2.85;;;2.03;;
11596;SDS011;5854;48.072;16.286;2022-07-29T09:42:43;3.10;;;2.00;;
11596;SDS011;5854;48.072;16.286;2022-07-29T09:45:11;2.28;;;2.00;;
11596;SDS011;5854;48.072;16.286;2022-07-29T09:47:44;7.78;;;2.30;;
11596;SDS011;5854;48.072;16.286;2022-07-29T09:50:14;1.92;;;1.73;;
11596;SDS011;5854;48.072;16.286;2022-07-29T09:52:44;5.70;;;2.07;;
11596;SDS011;5854;48.072;16.286;2022-07-29T09:55:15;3.22;;;1.95;;
11596;SDS011;5854;48.072;16.286;2022-07-29T09:57:43;3.17;;;2.03;;
11596;SDS011;5854;48.072;16.286;2022-07-29T10:00:11;3.53;;;2.15;;
11596;SDS011;5854;48.072;16.286;2022-07-29T10:02:41;8.65;;;1.92;;
11596;SDS011;5854;48.072;16.286;2022-07-29T10:05:18;2.97;;;2.47;;
11596;SDS011;5854;48.072;16.286;2022-07-29T10:07:48;6.72;;;2.42;;
11596;SDS011;5854;48.072;16.286;2022-07-29T10:10:22;4.18;;;2.30;;
11596;SDS011;5854;48.072;16.286;2022-07-29T10:12:52;4.40;;;2.40;;
11596;SDS011;5854;48.072;16.286;2022-07-29T10:15:22;2.72;;;2.30;;
11596;SDS011;5854;48.072;16.286;2022-07-29T10:17:51;2.47;;;2.28;;
11596;SDS011;5854;48.072;16.286;2022-07-29T10:20:20;4.20;;;2.72;;
11596;SDS011;5854;48.072;16.286;2022-07-29T10:22:48;3.13;;;2.33;;
11596;SDS011;5854;48.072;16.286;2022-07-29T10:25:16;3.40;;;2.20;;
11596;SDS011;5854;48.072;16.286;2022-07-29T10:27:47;2.55;;;1.92;;
11596;SDS011;5854;48.072;16.286;2022-07-29T10:30:16;8.70;;;2.25;;
11596;SDS011;5854;48.072;16.286;2022-07-29T10:32:49;4.13;;;3.00;;
11596;SDS011;5854;48.072;16.286;2022-07-29T10:35:43;6.10;;;2.10;;
11596;SDS011;5854;48.072;16.286;2022-07-29T10:38:24;4.65;;;2.20;;
11596;SDS011;5854;48.072;16.286;2022-07-29T10:41:07;4.00;;;2.30;;
11596;SDS011;5854;48.072;16.286;2022-07-29T10:44:06;3.28;;;2.03;;
11596;SDS011;5854;48.072;16.286;2022-07-29T10:46:40;5.22;;;2.38;;
11596;SDS011;5854;48.072;16.286;2022-07-29T10:49:09;3.13;;;1.80;;
11596;SDS011;5854;48.072;16.286;2022-07-29T10:51:55;3.25;;;2.40;;
11596;SDS011;5854;48.072;16.286;2022-07-29T10:54:40;4.15;;;2.10;;
11596;SDS011;5854;48.072;16.286;2022-07-29T10:57:16;3.03;;;2.13;;
11596;SDS011;5854;48.072;16.286;2022-07-29T11:02:58;3.30;;;1.77;;
11596;SDS011;5854;48.072;16.286;2022-07-29T11:05:26;1.98;;;1.73;;
11596;SDS011;5854;48.072;16.286;2022-07-29T11:14:01;2.67;;;2.40;;
11596;SDS011;5854;48.072;16.286;2022-07-29T11:16:57;2.67;;;1.98;;
11596;SDS011;5854;48.072;16.286;2022-07-29T11:19:30;5.63;;;2.00;;
11596;SDS011;5854;48.072;16.286;2022-07-29T11:21:57;3.50;;;1.92;;
11596;SDS011;5854;48.072;16.286;2022-07-29T11:24:25;8.85;;;2.25;;
11596;SDS011;5854;48.072;16.286;2022-07-29T11:27:08;2.78;;;2.55;;
11596;SDS011;5854;48.072;16.286;2022-07-29T11:29:40;5.40;;;1.95;;
11596;SDS011;5854;48.072;16.286;2022-07-29T11:32:20;4.07;;;2.20;;
11596;SDS011;5854;48.072;16.286;2022-07-29T11:34:49;3.53;;;2.15;;
11596;SDS011;5854;48.072;16.286;2022-07-29T11:37:38;3.13;;;2.10;;
11596;SDS011;5854;48.072;16.286;2022-07-29T11:42:50;5.25;;;1.95;;
11596;SDS011;5854;48.072;16.286;2022-07-29T11:45:21;3.05;;;2.28;;
11596;SDS011;5854;48.072;16.286;2022-07-29T11:47:58;1.98;;;1.88;;
11596;SDS011;5854;48.072;16.286;2022-07-29T11:50:33;4.70;;;2.33;;
11596;SDS011;5854;48.072;16.286;2022-07-29T11:53:02;2.05;;;1.92;;
11596;SDS011;5854;48.072;16.286;2022-07-29T11:55:37;2.65;;;2.10;;
11596;SDS011;5854;48.072;16.286;2022-07-29T11:58:05;6.35;;;2.50;;
11596;SDS011;5854;48.072;16.286;2022-07-29T12:00:33;3.03;;;2.25;;
11596;SDS011;5854;48.072;16.286;2022-07-29T12:03:04;4.15;;;2.20;;
11596;SDS011;5854;48.072;16.286;2022-07-29T12:05:34;6.35;;;2.13;;
11596;SDS011;5854;48.072;16.286;2022-07-29T12:08:05;8.32;;;2.28;;
11596;SDS011;5854;48.072;16.286;2022-07-29T12:10:35;5.60;;;2.05;;
11596;SDS011;5854;48.072;16.286;2022-07-29T12:13:03;4.60;;;2.50;;
11596;SDS011;5854;48.072;16.286;2022-07-29T12:15:31;3.25;;;2.03;;
11596;SDS011;5854;48.072;16.286;2022-07-29T12:17:59;2.60;;;2.35;;
11596;SDS011;5854;48.072;16.286;2022-07-29T12:20:38;8.65;;;2.83;;
11596;SDS011;5854;48.072;16.286;2022-07-29T12:23:06;2.38;;;2.13;;
11596;SDS011;5854;48.072;16.286;2022-07-29T12:25:34;5.90;;;2.88;;
11596;SDS011;5854;48.072;16.286;2022-07-29T12:28:03;8.93;;;2.35;;
11596;SDS011;5854;48.072;16.286;2022-07-29T12:30:36;3.85;;;2.53;;
11596;SDS011;5854;48.072;16.286;2022-07-29T12:33:20;6.93;;;2.55;;
11596;SDS011;5854;48.072;16.286;2022-07-29T12:35:52;2.47;;;2.17;;
11596;SDS011;5854;48.072;16.286;2022-07-29T12:38:22;4.65;;;2.20;;
11596;SDS011;5854;48.072;16.286;2022-07-29T12:40:49;3.58;;;2.00;;
11596;SDS011;5854;48.072;16.286;2022-07-29T12:43:19;8.02;;;2.25;;
11596;SDS011;5854;48.072;16.286;2022-07-29T12:45:48;3.58;;;2.67;;
11596;SDS011;5854;48.072;16.286;2022-07-29T12:48:17;8.52;;;2.75;;
11596;SDS011;5854;48.072;16.286;2022-07-29T12:51:00;3.60;;;2.45;;
11596;SDS011;5854;48.072;16.286;2022-07-29T12:53:29;5.20;;;2.40;;
11596;SDS011;5854;48.072;16.286;2022-07-29T12:55:57;5.53;;;2.45;;
11596;SDS011;5854;48.072;16.286;2022-07-29T12:58:30;3.55;;;2.25;;
11596;SDS011;5854;48.072;16.286;2022-07-29T13:01:00;3.38;;;1.70;;
11596;SDS011;5854;48.072;16.286;2022-07-29T13:03:42;4.28;;;2.50;;
11596;SDS011;5854;48.072;16.286;2022-07-29T13:06:32;5.65;;;2.10;;
11596;SDS011;5854;48.072;16.286;2022-07-29T13:09:03;5.83;;;2.10;;
11596;SDS011;5854;48.072;16.286;2022-07-29T13:11:37;3.30;;;1.90;;
11596;SDS011;5854;48.072;16.286;2022-07-29T13:14:07;7.07;;;2.25;;
11596;SDS011;5854;48.072;16.286;2022-07-29T13:16:36;6.38;;;2.15;;
11596;SDS011;5854;48.072;16.286;2022-07-29T13:19:33;7.35;;;2.17;;
11596;SDS011;5854;48.072;16.286;2022-07-29T13:22:02;8.35;;;2.38;;
11596;SDS011;5854;48.072;16.286;2022-07-29T13:24:31;2.10;;;1.90;;
11596;SDS011;5854;48.072;16.286;2022-07-29T13:26:58;3.85;;;1.77;;
11596;SDS011;5854;48.072;16.286;2022-07-29T13:29:25;5.85;;;2.38;;
11596;SDS011;5854;48.072;16.286;2022-07-29T13:31:52;2.00;;;1.80;;
11596;SDS011;5854;48.072;16.286;2022-07-29T13:34:20;1.92;;;1.83;;
11596;SDS011;5854;48.072;16.286;2022-07-29T13:36:50;3.53;;;2.50;;
11596;SDS011;5854;48.072;16.286;2022-07-29T13:39:17;3.15;;;2.10;;
11596;SDS011;5854;48.072;16.286;2022-07-29T13:41:44;8.10;;;2.20;;
11596;SDS011;5854;48.072;16.286;2022-07-29T13:44:11;3.28;;;1.95;;
11596;SDS011;5854;48.072;16.286;2022-07-29T13:46:39;2.60;;;1.90;;
11596;SDS011;5854;48.072;16.286;2022-07-29T13:49:06;2.20;;;1.73;;
11596;SDS011;5854;48.072;16.286;2022-07-29T13:51:33;3.85;;;2.33;;
11596;SDS011;5854;48.072;16.286;2022-07-29T13:54:01;2.60;;;2.30;;
11596;SDS011;5854;48.072;16.286;2022-07-29T13:56:29;3.53;;;1.75;;
11596;SDS011;5854;48.072;16.286;2022-07-29T13:58:56;2.90;;;2.60;;
11596;SDS011;5854;48.072;16.286;2022-07-29T14:01:23;3.10;;;2.72;;
11596;SDS011;5854;48.072;16.286;2022-07-29T14:03:51;2.92;;;2.33;;
11596;SDS011;5854;48.072;16.286;2022-07-29T14:06:18;2.38;;;1.88;;
11596;SDS011;5854;48.072;16.286;2022-07-29T14:08:45;2.65;;;2.42;;
11596;SDS011;5854;48.072;16.286;2022-07-29T14:11:13;4.65;;;3.00;;
11596;SDS011;5854;48.072;16.286;2022-07-29T14:13:41;2.95;;;2.08;;
11596;SDS011;5854;48.072;16.286;2022-07-29T14:16:08;2.40;;;2.13;;
11596;SDS011;5854;48.072;16.286;2022-07-29T14:18:35;3.42;;;1.83;;
11596;SDS011;5854;48.072;16.286;2022-07-29T14:21:02;3.30;;;2.20;;
11596;SDS011;5854;48.072;16.286;2022-07-29T14:23:29;2.58;;;2.25;;
11596;SDS011;5854;48.072;16.286;2022-07-29T14:25:56;5.18;;;2.50;;
11596;SDS011;5854;48.072;16.286;2022-07-29T14:28:25;3.28;;;2.63;;
11596;SDS011;5854;48.072;16.286;2022-07-29T14:30:52;3.72;;;3.00;;
11596;SDS011;5854;48.072;16.286;2022-07-29T14:33:19;2.78;;;2.42;;
11596;SDS011;5854;48.072;16.286;2022-07-29T14:35:46;4.28;;;2.83;;
11596;SDS011;5854;48.072;16.286;2022-07-29T14:38:13;4.88;;;3.08;;
11596;SDS011;5854;48.072;16.286;2022-07-29T14:40:41;5.53;;;3.22;;
11596;SDS011;5854;48.072;16.286;2022-07-29T14:43:08;3.03;;;2.83;;
11596;SDS011;5854;48.072;16.286;2022-07-29T14:45:36;3.17;;;2.88;;
11596;SDS011;5854;48.072;16.286;2022-07-29T14:48:03;3.35;;;3.08;;
11596;SDS011;5854;48.072;16.286;2022-07-29T14:50:31;6.50;;;3.15;;
11596;SDS011;5854;48.072;16.286;2022-07-29T14:52:58;3.40;;;2.80;;
11596;SDS011;5854;48.072;16.286;2022-07-29T14:55:26;3.13;;;2.83;;
11596;SDS011;5854;48.072;16.286;2022-07-29T14:57:53;3.72;;;3.00;;
11596;SDS011;5854;48.072;16.286;2022-07-29T15:00:20;3.63;;;2.88;;
11596;SDS011;5854;48.072;16.286;2022-07-29T15:02:49;6.88;;;3.10;;
11596;SDS011;5854;48.072;16.286;2022-07-29T15:05:16;2.97;;;2.78;;
11596;SDS011;5854;48.072;16.286;2022-07-29T15:07:43;4.65;;;3.13;;
11596;SDS011;5854;48.072;16.286;2022-07-29T15:10:10;3.35;;;2.97;;
11596;SDS011;5854;48.072;16.286;2022-07-29T15:12:37;2.78;;;2.45;;
11596;SDS011;5854;48.072;16.286;2022-07-29T15:15:05;2.78;;;2.58;;
11596;SDS011;5854;48.072;16.286;2022-07-29T15:17:33;3.83;;;2.60;;
11596;SDS011;5854;48.072;16.286;2022-07-29T15:20:03;2.58;;;2.35;;
11596;SDS011;5854;48.072;16.286;2022-07-29T15:22:31;3.47;;;2.13;;
11596;SDS011;5854;48.072;16.286;2022-07-29T15:24:58;2.85;;;2.65;;
11596;SDS011;5854;48.072;16.286;2022-07-29T15:27:25;3.70;;;2.55;;
11596;SDS011;5854;48.072;16.286;2022-07-29T15:29:52;2.38;;;2.17;;
11596;SDS011;5854;48.072;16.286;2022-07-29T15:32:20;2.72;;;2.47;;
11596;SDS011;5854;48.072;16.286;2022-07-29T15:34:47;2.95;;;2.40;;
11596;SDS011;5854;48.072;16.286;2022-07-29T15:37:15;2.45;;;2.25;;
11596;SDS011;5854;48.072;16.286;2022-07-29T15:39:43;2.83;;;2.63;;
11596;SDS011;5854;48.072;16.286;2022-07-29T15:42:10;1.85;;;1.75;;
11596;SDS011;5854;48.072;16.286;2022-07-29T15:44:37;6.40;;;2.30;;
11596;SDS011;5854;48.072;16.286;2022-07-29T15:47:04;2.78;;;2.13;;
11596;SDS011;5854;48.072;16.286;2022-07-29T15:49:32;6.15;;;2.20;;
11596;SDS011;5854;48.072;16.286;2022-07-29T15:52:02;3.75;;;1.70;;
11596;SDS011;5854;48.072;16.286;2022-07-29T15:54:33;2.40;;;2.08;;
11596;SDS011;5854;48.072;16.286;2022-07-29T15:57:02;5.25;;;2.03;;
11596;SDS011;5854;48.072;16.286;2022-07-29T15:59:31;2.00;;;1.90;;
11596;SDS011;5854;48.072;16.286;2022-07-29T16:01:59;2.38;;;1.52;;
11596;SDS011;5854;48.072;16.286;2022-07-29T16:04:26;2.83;;;2.58;;
11596;SDS011;5854;48.072;16.286;2022-07-29T16:06:53;2.03;;;1.92;;
11596;SDS011;5854;48.072;16.286;2022-07-29T16:09:21;2.88;;;1.88;;
11596;SDS011;5854;48.072;16.286;2022-07-29T16:11:49;3.67;;;2.05;;
11596;SDS011;5854;48.072;16.286;2022-07-29T16:14:18;1.48;;;1.38;;
11596;SDS011;5854;48.072;16.286;2022-07-29T16:16:45;1.98;;;1.77;;
11596;SDS011;5854;48.072;16.286;2022-07-29T16:19:12;2.40;;;2.20;;
11596;SDS011;5854;48.072;16.286;2022-07-29T16:21:40;2.17;;;1.98;;
11596;SDS011;5854;48.072;16.286;2022-07-29T16:24:07;2.75;;;1.88;;
11596;SDS011;5854;48.072;16.286;2022-07-29T16:26:34;3.00;;;2.00;;
11596;SDS011;5854;48.072;16.286;2022-07-29T16:29:03;2.05;;;1.90;;
11596;SDS011;5854;48.072;16.286;2022-07-29T16:31:30;1.90;;;1.70;;
11596;SDS011;5854;48.072;16.286;2022-07-29T16:33:57;2.67;;;1.83;;
11596;SDS011;5854;48.072;16.286;2022-07-29T16:36:27;1.75;;;1.65;;
11596;SDS011;5854;48.072;16.286;2022-07-29T16:38:54;2.42;;;1.65;;
11596;SDS011;5854;48.072;16.286;2022-07-29T16:41:21;2.78;;;2.45;;
11596;SDS011;5854;48.072;16.286;2022-07-29T16:43:48;2.65;;;2.45;;
11596;SDS011;5854;48.072;16.286;2022-07-29T16:46:17;3.15;;;2.40;;
11596;SDS011;5854;48.072;16.286;2022-07-29T16:48:45;2.70;;;2.00;;
11596;SDS011;5854;48.072;16.286;2022-07-29T16:51:13;3.40;;;2.53;;
11596;SDS011;5854;48.072;16.286;2022-07-29T16:53:40;6.85;;;3.28;;
11596;SDS011;5854;48.072;16.286;2022-07-29T16:56:09;2.90;;;2.63;;
11596;SDS011;5854;48.072;16.286;2022-07-29T16:58:36;5.80;;;2.88;;
11596;SDS011;5854;48.072;16.286;2022-07-29T17:01:03;3.40;;;3.10;;
11596;SDS011;5854;48.072;16.286;2022-07-29T17:03:31;6.07;;;3.35;;
11596;SDS011;5854;48.072;16.286;2022-07-29T17:05:59;5.03;;;4.07;;
11596;SDS011;5854;48.072;16.286;2022-07-29T17:08:26;3.78;;;3.47;;
11596;SDS011;5854;48.072;16.286;2022-07-29T17:10:53;4.53;;;4.18;;
11596;SDS011;5854;48.072;16.286;2022-07-29T17:13:20;7.38;;;4.03;;
11596;SDS011;5854;48.072;16.286;2022-07-29T17:15:47;6.57;;;4.88;;
11596;SDS011;5854;48.072;16.286;2022-07-29T17:18:14;4.78;;;3.60;;
11596;SDS011;5854;48.072;16.286;2022-07-29T17:20:43;8.45;;;4.65;;
11596;SDS011;5854;48.072;16.286;2022-07-29T17:23:10;6.60;;;3.83;;
11596;SDS011;5854;48.072;16.286;2022-07-29T17:25:37;7.40;;;4.45;;
11596;SDS011;5854;48.072;16.286;2022-07-29T17:28:04;5.20;;;4.55;;
11596;SDS011;5854;48.072;16.286;2022-07-29T17:30:31;4.70;;;4.30;;
11596;SDS011;5854;48.072;16.286;2022-07-29T17:32:58;4.68;;;4.28;;
11596;SDS011;5854;48.072;16.286;2022-07-29T17:35:25;4.57;;;4.18;;
11596;SDS011;5854;48.072;16.286;2022-07-29T17:38:11;5.05;;;4.55;;
11596;SDS011;5854;48.072;16.286;2022-07-29T17:40:38;4.47;;;4.00;;
11596;SDS011;5854;48.072;16.286;2022-07-29T17:43:06;4.35;;;3.95;;
11596;SDS011;5854;48.072;16.286;2022-07-29T17:45:33;4.47;;;4.07;;
11596;SDS011;5854;48.072;16.286;2022-07-29T17:48:00;6.88;;;3.72;;
11596;SDS011;5854;48.072;16.286;2022-07-29T17:50:27;6.20;;;4.15;;
11596;SDS011;5854;48.072;16.286;2022-07-29T17:52:54;6.47;;;3.78;;
11596;SDS011;5854;48.072;16.286;2022-07-29T17:55:23;6.03;;;3.80;;
11596;SDS011;5854;48.072;16.286;2022-07-29T17:57:50;6.30;;;4.15;;
11596;SDS011;5854;48.072;16.286;2022-07-29T18:00:17;10.60;;;3.65;;
11596;SDS011;5854;48.072;16.286;2022-07-29T18:02:45;4.47;;;3.75;;
11596;SDS011;5854;48.072;16.286;2022-07-29T18:05:13;4.45;;;2.78;;
11596;SDS011;5854;48.072;16.286;2022-07-29T18:07:40;3.53;;;3.22;;
11596;SDS011;5854;48.072;16.286;2022-07-29T18:10:07;3.22;;;2.85;;
11596;SDS011;5854;48.072;16.286;2022-07-29T18:12:36;4.53;;;3.63;;
11596;SDS011;5854;48.072;16.286;2022-07-29T18:15:04;3.80;;;3.50;;
11596;SDS011;5854;48.072;16.286;2022-07-29T18:17:32;5.93;;;3.33;;
11596;SDS011;5854;48.072;16.286;2022-07-29T18:19:59;5.40;;;3.85;;
11596;SDS011;5854;48.072;16.286;2022-07-29T18:22:26;10.93;;;4.47;;
11596;SDS011;5854;48.072;16.286;2022-07-29T18:24:53;4.70;;;4.30;;
11596;SDS011;5854;48.072;16.286;2022-07-29T18:27:20;3.88;;;3.58;;
11596;SDS011;5854;48.072;16.286;2022-07-29T18:29:52;4.57;;;4.10;;
11596;SDS011;5854;48.072;16.286;2022-07-29T18:32:20;4.13;;;3.85;;
11596;SDS011;5854;48.072;16.286;2022-07-29T18:34:47;4.22;;;3.85;;
11596;SDS011;5854;48.072;16.286;2022-07-29T18:37:15;7.32;;;3.30;;
11596;SDS011;5854;48.072;16.286;2022-07-29T18:39:42;5.00;;;4.10;;
11596;SDS011;5854;48.072;16.286;2022-07-29T18:42:09;3.83;;;3.63;;
11596;SDS011;5854;48.072;16.286;2022-07-29T18:44:36;5.57;;;3.50;;
11596;SDS011;5854;48.072;16.286;2022-07-29T18:47:05;4.35;;;4.05;;
11596;SDS011;5854;48.072;16.286;2022-07-29T18:49:32;4.30;;;3.90;;
11596;SDS011;5854;48.072;16.286;2022-07-29T18:51:59;4.43;;;4.13;;
11596;SDS011;5854;48.072;16.286;2022-07-29T18:54:26;4.93;;;3.92;;
11596;SDS011;5854;48.072;16.286;2022-07-29T18:56:54;4.20;;;3.92;;
11596;SDS011;5854;48.072;16.286;2022-07-29T18:59:22;4.10;;;3.80;;
11596;SDS011;5854;48.072;16.286;2022-07-29T19:01:49;4.13;;;3.47;;
11596;SDS011;5854;48.072;16.286;2022-07-29T19:04:17;4.32;;;3.92;;
11596;SDS011;5854;48.072;16.286;2022-07-29T19:06:44;4.20;;;3.90;;
11596;SDS011;5854;48.072;16.286;2022-07-29T19:09:11;4.25;;;3.95;;
11596;SDS011;5854;48.072;16.286;2022-07-29T19:11:39;4.75;;;3.70;;
11596;SDS011;5854;48.072;16.286;2022-07-29T19:14:06;6.75;;;3.85;;
11596;SDS011;5854;48.072;16.286;2022-07-29T19:16:33;4.63;;;4.22;;
11596;SDS011;5854;48.072;16.286;2022-07-29T19:19:00;4.47;;;4.10;;
11596;SDS011;5854;48.072;16.286;2022-07-29T19:21:29;4.05;;;3.75;;
11596;SDS011;5854;48.072;16.286;2022-07-29T19:23:56;5.57;;;4.03;;
11596;SDS011;5854;48.072;16.286;2022-07-29T19:26:24;3.90;;;3.58;;
11596;SDS011;5854;48.072;16.286;2022-07-29T19:28:51;8.73;;;4.03;;
11596;SDS011;5854;48.072;16.286;2022-07-29T19:31:18;4.65;;;3.78;;
11596;SDS011;5854;48.072;16.286;2022-07-29T19:33:45;4.38;;;4.07;;
11596;SDS011;5854;48.072;16.286;2022-07-29T19:36:13;3.10;;;2.90;;
11596;SDS011;5854;48.072;16.286;2022-07-29T19:38:41;4.78;;;3.88;;
11596;SDS011;5854;48.072;16.286;2022-07-29T19:41:08;4.20;;;3.72;;
11596;SDS011;5854;48.072;16.286;2022-07-29T19:43:37;3.80;;;3.60;;
11596;SDS011;5854;48.072;16.286;2022-07-29T19:46:04;3.80;;;3.47;;
11596;SDS011;5854;48.072;16.286;2022-07-29T19:48:31;3.65;;;3.35;;
11596;SDS011;5854;48.072;16.286;2022-07-29T19:50:58;3.85;;;3.55;;
11596;SDS011;5854;48.072;16.286;2022-07-29T19:53:25;3.95;;;3.65;;
11596;SDS011;5854;48.072;16.286;2022-07-29T19:55:54;3.72;;;3.42;;
11596;SDS011;5854;48.072;16.286;2022-07-29T19:58:21;4.38;;;3.95;;
11596;SDS011;5854;48.072;16.286;2022-07-29T20:00:48;4.10;;;3.80;;
11596;SDS011;5854;48.072;16.286;2022-07-29T20:03:15;4.22;;;3.88;;
11596;SDS011;5854;48.072;16.286;2022-07-29T20:05:42;4.60;;;3.90;;
11596;SDS011;5854;48.072;16.286;2022-07-29T20:08:09;5.00;;;4.20;;
11596;SDS011;5854;48.072;16.286;2022-07-29T20:10:36;5.45;;;4.00;;
11596;SDS011;5854;48.072;16.286;2022-07-29T20:13:05;4.43;;;4.13;;
11596;SDS011;5854;48.072;16.286;2022-07-29T20:15:32;4.78;;;4.38;;
11596;SDS011;5854;48.072;16.286;2022-07-29T20:17:59;5.85;;;4.40;;
11596;SDS011;5854;48.072;16.286;2022-07-29T20:20:26;4.97;;;4.57;;
11596;SDS011;5854;48.072;16.286;2022-07-29T20:22:54;4.63;;;4.32;;
11596;SDS011;5854;48.072;16.286;2022-07-29T20:25:23;5.20;;;4.90;;
11596;SDS011;5854;48.072;16.286;2022-07-29T20:27:50;6.32;;;4.40;;
11596;SDS011;5854;48.072;16.286;2022-07-29T20:30:19;7.45;;;4.38;;
11596;SDS011;5854;48.072;16.286;2022-07-29T20:32:47;4.70;;;4.35;;
11596;SDS011;5854;48.072;16.286;2022-07-29T20:35:14;7.20;;;4.75;;
11596;SDS011;5854;48.072;16.286;2022-07-29T20:37:42;6.65;;;4.47;;
11596;SDS011;5854;48.072;16.286;2022-07-29T20:40:09;6.22;;;5.22;;
11596;SDS011;5854;48.072;16.286;2022-07-29T20:42:37;4.60;;;4.18;;
11596;SDS011;5854;48.072;16.286;2022-07-29T20:45:04;8.82;;;4.35;;
11596;SDS011;5854;48.072;16.286;2022-07-29T20:47:34;4.55;;;4.25;;
11596;SDS011;5854;48.072;16.286;2022-07-29T20:50:01;4.55;;;4.20;;
11596;SDS011;5854;48.072;16.286;2022-07-29T20:52:29;4.53;;;4.00;;
11596;SDS011;5854;48.072;16.286;2022-07-29T20:54:57;4.22;;;4.00;;
11596;SDS011;5854;48.072;16.286;2022-07-29T20:57:24;4.35;;;3.80;;
11596;SDS011;5854;48.072;16.286;2022-07-29T20:59:51;6.68;;;4.07;;
11596;SDS011;5854;48.072;16.286;2022-07-29T21:02:18;3.97;;;3.78;;
11596;SDS011;5854;48.072;16.286;2022-07-29T21:04:46;3.88;;;3.58;;
11596;SDS011;5854;48.072;16.286;2022-07-29T21:07:13;3.95;;;3.65;;
11596;SDS011;5854;48.072;16.286;2022-07-29T21:09:40;5.60;;;3.58;;
11596;SDS011;5854;48.072;16.286;2022-07-29T21:12:07;4.50;;;4.13;;
11596;SDS011;5854;48.072;16.286;2022-07-29T21:14:35;6.60;;;3.42;;
11596;SDS011;5854;48.072;16.286;2022-07-29T21:17:22;4.05;;;3.75;;
11596;SDS011;5854;48.072;16.286;2022-07-29T21:19:50;4.88;;;3.90;;
11596;SDS011;5854;48.072;16.286;2022-07-29T21:22:19;3.05;;;2.85;;
11596;SDS011;5854;48.072;16.286;2022-07-29T21:24:46;3.70;;;3.40;;
11596;SDS011;5854;48.072;16.286;2022-07-29T21:27:14;4.38;;;3.40;;
11596;SDS011;5854;48.072;16.286;2022-07-29T21:30:00;3.10;;;2.92;;
11596;SDS011;5854;48.072;16.286;2022-07-29T21:32:27;3.42;;;3.15;;
11596;SDS011;5854;48.072;16.286;2022-07-29T21:34:55;3.83;;;3.42;;
11596;SDS011;5854;48.072;16.286;2022-07-29T21:37:23;3.55;;;3.25;;
11596;SDS011;5854;48.072;16.286;2022-07-29T21:39:51;3.90;;;3.55;;